.
WxDataArchive / Data Records for 2009-08-20
2009-08-19 August 2009 2009-08-21

Data Records for Thursday, 20 August 2009

Time	Temp	Chill	HIndex	Humid	Dewpt	 Wind 	HiWind	WindDir	Rain 	Barom 
-----	----	-----	------	-----	-----	------	------	-------	-----	----- 
00:00	66.0	66.0	66.0	94	64.2	0	1	90	0.00	29.813 
00:05	66.0	66.0	66.0	94	64.2	0	1	90	0.00	29.813 
00:10	66.1	66.1	66.1	94	64.3	0	3	90	0.00	29.813 
00:15	66.1	66.1	66.1	94	64.3	0	1	315	0.00	29.807 
00:20	66.1	66.1	66.1	94	64.3	0	1	315	0.00	29.807 
00:25	66.3	66.3	66.3	94	64.5	0	3	90	0.00	29.807 
00:30	66.4	66.4	66.4	94	64.6	1	3	90	0.00	29.805 
00:35	66.4	66.4	66.4	95	64.9	1	4	45	0.00	29.805 
00:40	66.6	66.6	66.6	94	64.8	1	4	90	0.00	29.805 
00:45	66.6	66.6	66.6	95	65.1	0	2	90	0.00	29.799 
00:50	66.6	66.6	66.6	95	65.1	0	2	315	0.00	29.799 
00:55	66.8	66.8	66.8	95	65.3	1	4	0	0.00	29.799 
01:00	66.6	66.6	66.6	95	65.1	1	4	90	0.00	29.802 
01:05	66.6	66.6	66.6	95	65.1	1	3	90	0.00	29.802 
01:10	66.6	66.6	66.6	95	65.1	1	4	68	0.00	29.802 
01:15	66.4	66.4	66.4	95	64.9	1	4	90	0.00	29.801 
01:20	66.4	66.4	66.4	95	64.9	1	4	90	0.00	29.801 
01:25	66.4	66.4	66.4	94	64.6	1	6	112	0.01	29.801 
01:30	66.4	66.4	66.4	94	64.6	2	7	112	0.00	29.787 
01:35	66.3	66.3	66.3	94	64.5	2	6	90	0.00	29.787 
01:40	66.3	66.3	66.3	94	64.5	1	6	45	0.00	29.787 
01:45	66.3	66.3	66.3	94	64.5	1	5	112	0.00	29.787 
01:50	66.3	66.3	66.3	94	64.5	1	5	90	0.00	29.787 
01:55	66.3	66.3	66.3	94	64.5	1	4	90	0.00	29.787 
02:00	66.3	66.3	66.3	93	64.2	1	3	90	0.00	29.781 
02:05	66.3	66.3	66.3	93	64.2	1	4	90	0.00	29.781 
02:10	66.1	66.1	66.1	93	64.0	1	6	22	0.00	29.781 
02:15	66.1	66.1	66.1	93	64.0	1	3	90	0.00	29.777 
02:20	66.1	66.1	66.1	93	64.0	0	3	90	0.00	29.777 
02:25	66.0	66.0	66.0	94	64.2	0	3	248	0.00	29.777 
02:30	66.0	66.0	66.0	94	64.2	0	1	22	0.00	29.778 
02:35	66.0	66.0	66.0	94	64.2	0	3	158	0.00	29.778 
02:40	65.8	65.8	65.8	94	64.0	0	2	158	0.00	29.778 
02:45	65.8	65.8	65.8	94	64.0	0	2	158	0.00	29.774 
02:50	65.8	65.8	65.8	94	64.0	0	1	270	0.00	29.774 
02:55	65.8	65.8	65.8	94	64.0	0	4	45	0.00	29.774 
03:00	65.8	65.8	65.8	94	64.0	0	1	45	0.00	29.766 
03:05	65.6	65.6	65.6	94	63.8	0	1	45	0.00	29.766 
03:10	65.6	65.6	65.6	94	63.8	0	1	45	0.00	29.766 
03:15	65.6	65.6	65.6	94	63.8	0	1	45	0.00	29.765 
03:20	65.6	65.6	65.6	94	63.8	0	0	---	0.01	29.765 
03:25	65.5	65.5	65.5	94	63.7	0	0	---	0.00	29.765 
03:30	65.5	65.5	65.5	95	64.0	0	1	45	0.00	29.764 
03:35	65.6	65.6	65.6	95	64.1	0	1	45	0.00	29.764 
03:40	65.6	65.6	65.6	95	64.1	0	2	45	0.00	29.764 
03:45	65.6	65.6	65.6	95	64.1	0	1	45	0.00	29.772 
03:50	65.6	65.6	65.6	95	64.1	0	1	45	0.00	29.772 
03:55	65.8	65.8	65.8	95	64.3	0	1	45	0.00	29.772 
04:00	65.8	65.8	65.8	95	64.3	0	1	45	0.00	29.765 
04:05	65.8	65.8	65.8	95	64.3	0	2	45	0.00	29.765 
04:10	66.0	66.0	66.0	95	64.5	0	2	45	0.00	29.765 
04:15	66.1	66.1	66.1	95	64.6	0	1	45	0.00	29.759 
04:20	66.1	66.1	66.1	95	64.6	0	1	45	0.00	29.759 
04:25	66.1	66.1	66.1	95	64.6	0	2	45	0.00	29.759 
04:30	66.3	66.3	66.3	95	64.8	0	2	45	0.00	29.758 
04:35	66.1	66.1	66.1	95	64.6	0	0	---	0.00	29.758 
04:40	66.1	66.1	66.1	95	64.6	0	2	45	0.00	29.758 
04:45	66.1	66.1	66.1	95	64.6	0	0	---	0.00	29.758 
04:50	66.1	66.1	66.1	95	64.6	0	0	---	0.00	29.758 
04:55	66.1	66.1	66.1	95	64.6	0	0	---	0.00	29.758 
05:00	66.1	66.1	66.1	95	64.6	0	0	---	0.00	29.757 
05:05	66.3	66.3	66.3	95	64.8	0	0	---	0.00	29.757 
05:10	66.3	66.3	66.3	95	64.8	0	0	---	0.00	29.757 
05:15	66.4	66.4	66.4	95	64.9	0	0	---	0.00	29.758 
05:20	66.6	66.6	66.6	95	65.1	0	0	---	0.00	29.758 
05:25	66.8	66.8	66.8	95	65.3	0	0	---	0.00	29.758 
05:30	66.8	66.8	66.8	95	65.3	0	0	---	0.00	29.758 
05:35	66.9	66.9	66.9	95	65.4	0	1	45	0.00	29.758 
05:40	66.9	66.9	66.9	95	65.4	0	1	45	0.00	29.758 
05:45	66.9	66.9	66.9	95	65.4	0	1	45	0.00	29.758 
05:50	66.9	66.9	66.9	95	65.4	0	1	45	0.00	29.758 
05:55	66.9	66.9	66.9	95	65.4	0	2	45	0.00	29.758 
06:00	66.9	66.9	66.9	95	65.4	0	1	45	0.00	29.748 
06:05	67.1	67.1	67.1	95	65.6	0	2	45	0.00	29.748 
06:10	67.1	67.1	67.1	95	65.6	0	1	45	0.00	29.748 
06:15	67.1	67.1	67.1	95	65.6	0	1	45	0.00	29.749 
06:20	67.1	67.1	67.1	95	65.6	0	2	45	0.00	29.749 
06:25	67.3	67.3	67.3	95	65.8	0	2	45	0.00	29.749 
06:30	67.3	67.3	67.3	95	65.8	0	2	45	0.00	29.745 
06:35	67.4	67.4	67.4	95	65.9	0	1	45	0.00	29.745 
06:40	67.6	67.6	67.6	95	66.1	0	2	45	0.00	29.745 
06:45	67.6	67.6	67.6	95	66.1	0	2	45	0.00	29.732 
06:50	67.8	67.8	67.8	95	66.3	0	1	45	0.00	29.732 
06:55	67.9	67.9	67.9	95	66.4	0	2	45	0.00	29.732 
07:00	68.1	68.1	68.1	95	66.6	0	3	292	0.00	29.731 
07:05	68.1	68.1	68.1	95	66.6	0	1	292	0.00	29.731 
07:10	68.3	68.3	68.3	95	66.8	0	2	45	0.00	29.731 
07:15	68.4	68.4	68.4	95	66.9	1	4	45	0.00	29.729 
07:20	68.6	68.6	68.6	95	67.1	0	5	68	0.00	29.729 
07:25	68.8	68.8	68.8	95	67.3	0	2	68	0.00	29.729 
07:30	68.9	68.9	68.9	95	67.4	0	2	68	0.00	29.729 
07:35	68.9	68.9	68.9	95	67.4	0	3	248	0.00	29.729 
07:40	69.3	69.3	69.3	95	67.8	1	5	248	0.00	29.729 
07:45	69.4	69.4	69.4	95	67.9	1	4	68	0.00	29.729 
07:50	69.6	69.6	69.6	94	67.8	0	3	248	0.00	29.729 
07:55	69.8	69.8	69.8	94	68.0	1	3	68	0.00	29.729 
08:00	69.9	69.9	69.9	94	68.1	1	3	68	0.00	29.729 
08:05	70.1	70.1	70.1	94	68.3	1	3	112	0.00	29.729 
08:10	70.4	70.4	70.4	94	68.6	1	2	112	0.00	29.729 
08:15	70.8	70.8	70.8	94	69.0	1	3	0	0.00	29.728 
08:20	70.8	70.8	70.8	94	69.0	1	5	22	0.00	29.728 
08:25	70.9	70.9	70.9	94	69.1	1	5	22	0.00	29.728 
08:30	70.9	70.9	70.9	93	68.8	1	3	22	0.00	29.728 
08:35	70.9	70.9	70.9	93	68.8	1	4	22	0.00	29.728 
08:40	70.9	70.9	70.9	93	68.8	1	5	112	0.00	29.728 
08:45	71.1	71.1	71.1	93	69.0	1	3	68	0.00	29.727 
08:50	71.1	71.1	71.1	93	69.0	1	5	45	0.00	29.727 
08:55	70.8	70.8	70.8	92	68.4	3	13	292	0.12	29.727 
09:00	70.6	70.6	70.6	93	68.5	2	7	292	0.00	29.712 
09:05	70.8	70.8	70.8	93	68.7	1	3	292	0.00	29.712 
09:10	70.9	70.9	70.9	94	69.1	1	6	112	0.00	29.712 
09:15	70.9	70.9	70.9	94	69.1	1	4	90	0.00	29.705 
09:20	71.1	71.1	71.1	94	69.3	1	3	90	0.01	29.705 
09:25	71.1	71.1	71.1	94	69.3	1	6	68	0.00	29.705 
09:30	71.3	71.3	71.3	94	69.5	1	3	135	0.00	29.692 
09:35	71.5	71.5	71.5	94	69.7	1	4	135	0.00	29.692 
09:40	71.6	71.6	71.6	94	69.8	1	3	90	0.00	29.692 
09:45	71.8	71.8	71.8	94	70.0	1	3	45	0.00	29.689 
09:50	72.1	72.1	72.1	94	70.3	1	4	135	0.00	29.689 
09:55	72.7	72.7	72.7	94	70.9	0	4	90	0.00	29.689 
10:00	72.7	72.7	72.7	94	70.9	1	5	90	0.00	29.693 
10:05	72.8	72.8	72.8	93	70.7	1	6	90	0.00	29.693 
10:10	72.8	72.8	72.8	93	70.7	1	5	248	0.00	29.693 
10:15	72.8	72.8	72.8	93	70.7	1	5	270	0.00	29.701 
10:20	73.2	73.2	73.2	93	71.0	1	3	270	0.00	29.701 
10:25	73.3	73.3	73.3	93	71.1	1	3	292	0.00	29.701 
10:30	73.7	73.7	73.7	92	71.2	2	10	292	0.00	29.698 
10:35	74.0	74.0	74.0	92	71.5	2	6	90	0.00	29.698 
10:40	74.4	74.4	74.4	91	71.6	2	9	270	0.00	29.698 
10:45	74.9	74.9	74.9	89	71.4	2	6	338	0.00	29.688 
10:50	75.1	75.1	74.6	88	71.3	2	5	292	0.00	29.688 
10:55	75.6	75.6	75.6	87	71.4	2	11	270	0.00	29.688 
11:00	75.6	75.6	75.9	85	70.8	1	5	225	0.00	29.692 
11:05	75.4	75.4	75.7	84	70.2	2	5	248	0.00	29.692 
11:10	76.1	76.1	76.8	84	70.9	2	5	270	0.00	29.692 
11:15	77.0	77.0	78.5	82	71.1	2	6	248	0.00	29.690 
11:20	77.6	77.6	79.6	81	71.3	2	6	248	0.00	29.690 
11:25	77.6	77.6	79.6	77	69.8	2	6	270	0.00	29.690 
11:30	77.6	77.6	79.6	77	69.8	2	8	45	0.00	29.682 
11:35	77.4	77.4	79.3	77	69.6	3	11	292	0.00	29.682 
11:40	77.9	77.9	80.1	77	70.1	2	10	270	0.00	29.682 
11:45	77.9	77.9	80.0	76	69.7	3	11	270	0.00	29.681 
11:50	77.2	77.2	78.9	78	69.8	3	7	270	0.00	29.681 
11:55	74.7	74.7	74.7	82	68.8	4	11	270	0.09	29.681 
12:00	73.0	73.0	73.0	86	68.6	2	4	270	0.01	29.698 
12:05	72.1	72.1	72.1	89	68.7	1	5	270	0.00	29.698 
12:10	72.0	72.0	72.0	91	69.2	1	3	270	0.00	29.698 
12:15	72.1	72.1	72.1	92	69.6	1	5	270	0.00	29.709 
12:20	72.1	72.1	72.1	92	69.6	1	4	0	0.00	29.709 
12:25	72.1	72.1	72.1	92	69.6	1	3	315	0.00	29.709 
12:30	72.1	72.1	72.1	91	69.3	1	4	292	0.00	29.702 
12:35	71.5	71.5	71.5	89	68.1	2	4	270	0.00	29.702 
12:40	71.3	71.3	71.3	87	67.2	1	4	225	0.00	29.702 
12:45	71.5	71.5	71.5	87	67.4	1	4	270	0.00	29.715 
12:50	71.8	71.8	71.8	86	67.4	1	3	270	0.00	29.715 
12:55	72.1	72.1	72.1	85	67.3	1	4	270	0.00	29.715 
13:00	73.2	73.2	73.2	84	68.1	2	4	270	0.00	29.712 
13:05	74.2	74.2	74.2	81	68.0	2	5	270	0.00	29.712 
13:10	75.3	75.3	76.2	78	68.0	2	5	270	0.00	29.712 
13:15	75.8	75.8	77.0	77	68.1	2	4	270	0.00	29.715 
13:20	76.5	76.5	78.0	75	68.0	2	5	270	0.00	29.715 
13:25	76.8	76.8	78.4	74	67.9	2	7	270	0.00	29.715 
13:30	76.8	76.8	78.5	72	67.1	3	5	270	0.00	29.715 
13:35	76.5	76.5	78.2	71	66.4	3	7	248	0.00	29.715 
13:40	76.5	76.5	78.2	69	65.6	3	11	270	0.00	29.715 
13:45	77.4	77.4	79.2	65	64.7	3	6	270	0.00	29.714 
13:50	77.9	77.9	79.7	65	65.2	3	6	270	0.00	29.714 
13:55	77.6	77.6	79.4	62	63.5	3	6	270	0.00	29.714 
14:00	77.4	77.4	79.2	62	63.3	4	7	270	0.00	29.717 
14:05	77.7	77.7	79.4	62	63.6	3	7	270	0.00	29.717 
14:10	77.6	77.6	79.4	62	63.5	3	7	270	0.00	29.717 
14:15	77.7	77.7	79.5	63	64.1	3	7	270	0.00	29.714 
14:20	78.5	78.5	80.3	63	64.8	2	5	270	0.00	29.714 
14:25	79.0	79.0	80.7	60	63.9	3	7	270	0.00	29.714 
14:30	79.2	79.2	80.9	60	64.1	3	6	270	0.00	29.713 
14:35	79.4	79.4	81.0	59	63.8	2	7	270	0.00	29.713 
14:40	78.8	78.8	80.5	61	64.2	3	9	270	0.00	29.713 
14:45	78.6	78.6	80.4	62	64.5	2	6	270	0.00	29.709 
14:50	79.2	79.2	80.9	60	64.1	3	9	270	0.00	29.709 
14:55	79.4	79.4	81.1	60	64.3	2	6	270	0.00	29.709 
15:00	79.0	79.0	80.8	61	64.4	2	5	270	0.00	29.709 
15:05	78.6	78.6	80.4	62	64.5	2	5	270	0.00	29.709 
15:10	78.6	78.6	80.4	62	64.5	2	6	270	0.00	29.709 
15:15	79.2	79.2	81.1	63	65.5	1	3	248	0.00	29.704 
15:20	79.6	79.6	81.3	60	64.5	2	6	248	0.00	29.704 
15:25	79.6	79.6	81.3	60	64.5	3	7	270	0.00	29.704 
15:30	79.6	79.6	81.3	60	64.5	3	7	292	0.00	29.697 
15:35	79.6	79.6	81.3	60	64.5	3	9	270	0.00	29.697 
15:40	79.6	79.6	81.3	60	64.5	2	5	270	0.00	29.697 
15:45	79.2	79.2	81.0	61	64.6	3	7	270	0.00	29.701 
15:50	79.2	79.2	80.8	59	63.6	3	9	270	0.00	29.701 
15:55	79.0	79.0	80.8	61	64.4	3	9	270	0.00	29.701 
16:00	79.4	79.4	81.0	59	63.8	2	5	270	0.00	29.701 
16:05	79.6	79.6	81.5	62	65.4	2	4	270	0.00	29.701 
16:10	79.6	79.6	81.3	59	64.0	2	5	248	0.00	29.701 
16:15	79.8	79.8	81.5	59	64.2	2	6	248	0.00	29.698 
16:20	79.9	79.9	81.4	57	63.3	2	7	248	0.00	29.698 
16:25	79.9	79.9	81.2	55	62.3	3	7	270	0.00	29.698 
16:30	79.8	79.8	81.2	56	62.7	3	7	270	0.00	29.692 
16:35	79.6	79.6	81.1	57	63.0	2	6	270	0.00	29.692 
16:40	79.2	79.2	80.8	59	63.6	1	6	225	0.00	29.692 
16:45	78.8	78.8	80.4	59	63.2	2	5	270	0.00	29.695 
16:50	78.6	78.6	80.3	61	64.0	2	5	248	0.00	29.695 
16:55	78.8	78.8	80.5	61	64.2	2	6	292	0.00	29.695 
17:00	78.5	78.5	80.2	61	63.9	3	9	270	0.00	29.690 
17:05	78.1	78.1	79.8	61	63.5	2	6	248	0.00	29.690 
17:10	78.5	78.5	80.2	60	63.4	3	7	270	0.00	29.690 
17:15	78.8	78.8	80.4	59	63.2	3	7	270	0.00	29.686 
17:20	78.6	78.6	80.2	59	63.1	3	6	270	0.00	29.686 
17:25	78.3	78.3	80.0	60	63.2	3	6	270	0.00	29.686 
17:30	77.9	77.9	79.6	60	62.9	2	6	270	0.00	29.688 
17:35	77.7	77.7	79.4	59	62.2	3	9	248	0.00	29.688 
17:40	77.7	77.7	79.4	60	62.7	3	6	270	0.00	29.688 
17:45	78.3	78.3	79.9	59	62.8	2	7	270	0.00	29.683 
17:50	78.6	78.6	80.1	58	62.6	3	8	248	0.00	29.683 
17:55	78.8	78.8	80.3	58	62.8	3	12	270	0.00	29.683 
18:00	78.3	78.3	79.9	58	62.3	3	7	270	0.00	29.683 
18:05	78.3	78.3	79.9	58	62.3	4	7	270	0.00	29.683 
18:10	78.3	78.3	79.9	58	62.3	3	11	248	0.00	29.683 
18:15	77.9	77.9	79.6	60	62.9	3	9	270	0.00	29.688 
18:20	77.6	77.6	79.3	60	62.6	2	7	270	0.00	29.688 
18:25	77.2	77.2	78.9	59	61.7	3	7	270	0.00	29.688 
18:30	77.0	77.0	78.8	60	62.0	2	6	270	0.00	29.692 
18:35	77.0	77.0	78.8	60	62.0	2	6	248	0.00	29.692 
18:40	77.2	77.2	78.9	60	62.2	2	5	270	0.00	29.692 
18:45	77.6	77.6	79.3	60	62.6	1	3	270	0.00	29.691 
18:50	77.7	77.7	79.4	59	62.2	1	5	270	0.00	29.691 
18:55	77.6	77.6	79.3	59	62.1	2	7	270	0.00	29.691 
19:00	77.4	77.4	79.1	60	62.4	3	7	292	0.00	29.689 
19:05	77.2	77.2	78.9	60	62.2	2	4	270	0.00	29.689 
19:10	77.0	77.0	78.8	60	62.0	2	5	270	0.00	29.689 
19:15	77.0	77.0	78.8	60	62.0	3	6	270	0.00	29.691 
19:20	76.8	76.8	78.6	61	62.3	2	4	270	0.00	29.691 
19:25	76.7	76.7	78.5	62	62.7	1	5	248	0.00	29.691 
19:30	76.7	76.7	78.5	60	61.7	3	6	270	0.00	29.693 
19:35	76.7	76.7	78.5	61	62.2	2	5	270	0.00	29.693 
19:40	76.3	76.3	78.2	60	61.4	2	7	270	0.00	29.693 
19:45	76.1	76.1	78.1	61	61.7	1	4	248	0.00	29.696 
19:50	76.0	76.0	78.0	60	61.1	2	6	248	0.00	29.696 
19:55	75.8	75.8	77.9	60	60.9	2	4	270	0.00	29.696 
20:00	75.6	75.6	77.7	60	60.7	2	5	270	0.00	29.701 
20:05	75.3	75.3	77.5	60	60.4	2	4	248	0.00	29.701 
20:10	75.1	75.1	77.4	61	60.7	2	5	270	0.00	29.701 
20:15	75.1	75.1	77.4	61	60.7	2	4	270	0.00	29.700 
20:20	74.9	74.9	74.9	61	60.5	2	5	270	0.00	29.700 
20:25	74.6	74.6	74.6	62	60.7	1	4	248	0.00	29.700 
20:30	74.4	74.4	74.4	62	60.5	1	3	248	0.00	29.713 
20:35	74.2	74.2	74.2	62	60.3	1	4	270	0.00	29.713 
20:40	74.0	74.0	74.0	63	60.6	1	2	270	0.00	29.713 
20:45	73.9	73.9	73.9	64	60.9	1	3	248	0.00	29.716 
20:50	73.7	73.7	73.7	64	60.7	0	2	248	0.00	29.716 
20:55	73.7	73.7	73.7	64	60.7	0	2	248	0.00	29.716 
21:00	73.7	73.7	73.7	65	61.2	0	2	248	0.00	29.729 
21:05	73.5	73.5	73.5	65	61.0	0	1	248	0.00	29.729 
21:10	73.3	73.3	73.3	66	61.2	0	1	248	0.00	29.729 
21:15	73.3	73.3	73.3	66	61.2	0	2	248	0.00	29.730 
21:20	73.3	73.3	73.3	66	61.2	1	3	248	0.00	29.730 
21:25	73.3	73.3	73.3	67	61.7	0	2	248	0.00	29.730 
21:30	73.2	73.2	73.2	68	62.0	0	2	248	0.00	29.743 
21:35	73.0	73.0	73.0	68	61.8	0	2	248	0.00	29.743 
21:40	73.0	73.0	73.0	68	61.8	1	2	248	0.00	29.743 
21:45	73.0	73.0	73.0	68	61.8	1	3	248	0.00	29.746 
21:50	72.8	72.8	72.8	68	61.6	1	4	270	0.00	29.746 
21:55	72.8	72.8	72.8	68	61.6	1	4	270	0.00	29.746 
22:00	72.7	72.7	72.7	68	61.5	1	3	315	0.00	29.753 
22:05	72.8	72.8	72.8	68	61.6	1	3	292	0.00	29.753 
22:10	72.7	72.7	72.7	68	61.5	1	4	248	0.00	29.753 
22:15	72.5	72.5	72.5	69	61.7	1	3	270	0.00	29.759 
22:20	72.3	72.3	72.3	69	61.5	1	3	270	0.00	29.759 
22:25	72.3	72.3	72.3	68	61.1	1	3	248	0.00	29.759 
22:30	72.3	72.3	72.3	68	61.1	1	3	270	0.00	29.761 
22:35	72.1	72.1	72.1	68	60.9	1	3	270	0.00	29.761 
22:40	72.0	72.0	72.0	67	60.4	1	3	248	0.00	29.761 
22:45	71.8	71.8	71.8	68	60.7	1	3	270	0.00	29.767 
22:50	71.6	71.6	71.6	68	60.5	1	3	270	0.00	29.767 
22:55	71.8	71.8	71.8	67	60.2	1	3	270	0.00	29.767 
23:00	71.8	71.8	71.8	67	60.2	1	4	270	0.00	29.776 
23:05	71.8	71.8	71.8	67	60.2	1	5	270	0.00	29.776 
23:10	71.6	71.6	71.6	68	60.5	1	4	270	0.00	29.776 
23:15	71.6	71.6	71.6	68	60.5	1	3	248	0.00	29.779 
23:20	71.6	71.6	71.6	68	60.5	1	2	248	0.00	29.779 
23:25	71.6	71.6	71.6	68	60.5	0	2	225	0.00	29.779 
23:30	71.6	71.6	71.6	68	60.5	1	3	270	0.00	29.776 
23:35	71.5	71.5	71.5	69	60.8	0	2	292	0.00	29.776 
23:40	71.3	71.3	71.3	69	60.6	0	2	315	0.00	29.776 
23:45	71.1	71.1	71.1	70	60.8	1	3	248	0.00	29.775 
23:50	70.9	70.9	70.9	71	61.0	1	3	248	0.00	29.775 
23:55	70.9	70.9	70.9	71	61.0	1	4	270	0.00	29.775 

CoCoRaHS
IN-AL-39
A2 Web Hosting
Creative Commons License
GoDaddy
search engine by freefind advanced

loaded 2018-11-14 00:20:01 • last modified 2010-11-18 10:43:29
Privacy PolicyDisclaimer
• wx.awcolley.com is powered by PmWiki v.2002016 •
• all content (unless otherwise noted) © 2018 A W Colley